sensor_id;sensor_type;location;lat;lon;timestamp;P1;durP1;ratioP1;P2;durP2;ratioP2
16693;SDS011;39538;52.196;9.892;2022-10-16T00:01:06;139.90;;;133.67;;
16693;SDS011;39538;52.196;9.892;2022-10-16T00:03:34;143.00;;;137.37;;
16693;SDS011;39538;52.196;9.892;2022-10-16T00:06:01;149.03;;;142.90;;
16693;SDS011;39538;52.196;9.892;2022-10-16T00:08:28;146.53;;;140.63;;
16693;SDS011;39538;52.196;9.892;2022-10-16T00:10:59;153.07;;;146.17;;
16693;SDS011;39538;52.196;9.892;2022-10-16T00:13:28;158.87;;;152.47;;
16693;SDS011;39538;52.196;9.892;2022-10-16T00:15:55;148.17;;;142.33;;
16693;SDS011;39538;52.196;9.892;2022-10-16T00:18:22;152.27;;;146.33;;
16693;SDS011;39538;52.196;9.892;2022-10-16T00:20:48;150.47;;;144.33;;
16693;SDS011;39538;52.196;9.892;2022-10-16T00:23:15;151.13;;;145.30;;
16693;SDS011;39538;52.196;9.892;2022-10-16T00:25:41;165.37;;;158.47;;
16693;SDS011;39538;52.196;9.892;2022-10-16T00:28:09;166.27;;;159.27;;
16693;SDS011;39538;52.196;9.892;2022-10-16T00:30:37;165.40;;;158.77;;
16693;SDS011;39538;52.196;9.892;2022-10-16T00:33:03;157.20;;;150.70;;
16693;SDS011;39538;52.196;9.892;2022-10-16T00:35:30;156.03;;;149.63;;
16693;SDS011;39538;52.196;9.892;2022-10-16T00:37:57;161.57;;;154.53;;
16693;SDS011;39538;52.196;9.892;2022-10-16T00:40:23;137.33;;;131.80;;
16693;SDS011;39538;52.196;9.892;2022-10-16T00:42:50;148.17;;;142.17;;
16693;SDS011;39538;52.196;9.892;2022-10-16T00:45:18;136.30;;;130.90;;
16693;SDS011;39538;52.196;9.892;2022-10-16T00:47:44;155.83;;;149.03;;
16693;SDS011;39538;52.196;9.892;2022-10-16T00:50:16;124.23;;;119.63;;
16693;SDS011;39538;52.196;9.892;2022-10-16T00:52:50;139.70;;;134.20;;
16693;SDS011;39538;52.196;9.892;2022-10-16T00:55:18;150.17;;;143.80;;
16693;SDS011;39538;52.196;9.892;2022-10-16T00:57:45;139.30;;;129.90;;
16693;SDS011;39538;52.196;9.892;2022-10-16T01:00:13;130.97;;;125.77;;
16693;SDS011;39538;52.196;9.892;2022-10-16T01:02:43;115.13;;;110.80;;
16693;SDS011;39538;52.196;9.892;2022-10-16T01:05:10;106.97;;;103.17;;
16693;SDS011;39538;52.196;9.892;2022-10-16T01:07:38;110.93;;;106.80;;
16693;SDS011;39538;52.196;9.892;2022-10-16T01:10:14;105.33;;;101.37;;
16693;SDS011;39538;52.196;9.892;2022-10-16T01:12:48;99.33;;;95.80;;
16693;SDS011;39538;52.196;9.892;2022-10-16T01:15:19;105.37;;;101.20;;
16693;SDS011;39538;52.196;9.892;2022-10-16T01:17:53;109.23;;;105.20;;
16693;SDS011;39538;52.196;9.892;2022-10-16T01:20:26;107.03;;;103.30;;
16693;SDS011;39538;52.196;9.892;2022-10-16T01:23:02;100.17;;;96.60;;
16693;SDS011;39538;52.196;9.892;2022-10-16T01:25:37;90.60;;;87.07;;
16693;SDS011;39538;52.196;9.892;2022-10-16T01:28:16;97.03;;;93.50;;
16693;SDS011;39538;52.196;9.892;2022-10-16T01:30:45;103.33;;;99.50;;
16693;SDS011;39538;52.196;9.892;2022-10-16T01:33:14;106.97;;;102.53;;
16693;SDS011;39538;52.196;9.892;2022-10-16T01:35:46;91.40;;;88.03;;
16693;SDS011;39538;52.196;9.892;2022-10-16T01:38:16;91.00;;;87.77;;
16693;SDS011;39538;52.196;9.892;2022-10-16T01:40:49;89.20;;;86.00;;
16693;SDS011;39538;52.196;9.892;2022-10-16T01:43:24;96.10;;;92.87;;
16693;SDS011;39538;52.196;9.892;2022-10-16T01:45:53;99.60;;;95.97;;
16693;SDS011;39538;52.196;9.892;2022-10-16T01:48:20;103.13;;;99.30;;
16693;SDS011;39538;52.196;9.892;2022-10-16T01:50:50;93.53;;;89.77;;
16693;SDS011;39538;52.196;9.892;2022-10-16T01:53:20;91.47;;;88.50;;
16693;SDS011;39538;52.196;9.892;2022-10-16T01:55:49;100.23;;;96.47;;
16693;SDS011;39538;52.196;9.892;2022-10-16T01:58:18;100.17;;;96.50;;
16693;SDS011;39538;52.196;9.892;2022-10-16T02:00:46;114.53;;;110.00;;
16693;SDS011;39538;52.196;9.892;2022-10-16T02:03:14;113.60;;;109.23;;
16693;SDS011;39538;52.196;9.892;2022-10-16T02:05:44;120.60;;;115.63;;
16693;SDS011;39538;52.196;9.892;2022-10-16T02:08:12;127.93;;;122.57;;
16693;SDS011;39538;52.196;9.892;2022-10-16T02:10:39;128.10;;;123.00;;
16693;SDS011;39538;52.196;9.892;2022-10-16T02:13:07;129.20;;;123.77;;
16693;SDS011;39538;52.196;9.892;2022-10-16T02:15:37;137.93;;;132.27;;
16693;SDS011;39538;52.196;9.892;2022-10-16T02:18:05;144.33;;;138.37;;
16693;SDS011;39538;52.196;9.892;2022-10-16T02:20:35;125.47;;;120.33;;
16693;SDS011;39538;52.196;9.892;2022-10-16T02:23:07;130.77;;;125.50;;
16693;SDS011;39538;52.196;9.892;2022-10-16T02:25:40;118.00;;;113.20;;
16693;SDS011;39538;52.196;9.892;2022-10-16T02:28:11;115.33;;;110.93;;
16693;SDS011;39538;52.196;9.892;2022-10-16T02:30:43;116.03;;;111.27;;
16693;SDS011;39538;52.196;9.892;2022-10-16T02:33:15;114.13;;;109.50;;
16693;SDS011;39538;52.196;9.892;2022-10-16T02:35:44;113.70;;;109.10;;
16693;SDS011;39538;52.196;9.892;2022-10-16T02:38:12;125.10;;;120.20;;
16693;SDS011;39538;52.196;9.892;2022-10-16T02:40:41;118.87;;;113.97;;
16693;SDS011;39538;52.196;9.892;2022-10-16T02:43:08;103.63;;;100.03;;
16693;SDS011;39538;52.196;9.892;2022-10-16T02:45:35;106.03;;;101.63;;
16693;SDS011;39538;52.196;9.892;2022-10-16T02:48:02;107.57;;;103.27;;
16693;SDS011;39538;52.196;9.892;2022-10-16T02:50:30;104.40;;;100.30;;
16693;SDS011;39538;52.196;9.892;2022-10-16T02:52:57;103.23;;;99.43;;
16693;SDS011;39538;52.196;9.892;2022-10-16T02:55:23;102.47;;;98.30;;
16693;SDS011;39538;52.196;9.892;2022-10-16T02:57:50;95.53;;;92.03;;
16693;SDS011;39538;52.196;9.892;2022-10-16T03:00:16;91.67;;;88.50;;
16693;SDS011;39538;52.196;9.892;2022-10-16T03:02:43;100.40;;;96.80;;
16693;SDS011;39538;52.196;9.892;2022-10-16T03:05:10;98.40;;;94.83;;
16693;SDS011;39538;52.196;9.892;2022-10-16T03:07:38;116.07;;;111.30;;
16693;SDS011;39538;52.196;9.892;2022-10-16T03:10:05;108.00;;;103.60;;
16693;SDS011;39538;52.196;9.892;2022-10-16T03:12:32;118.20;;;113.67;;
16693;SDS011;39538;52.196;9.892;2022-10-16T03:14:59;140.07;;;133.80;;
16693;SDS011;39538;52.196;9.892;2022-10-16T03:17:25;147.27;;;140.87;;
16693;SDS011;39538;52.196;9.892;2022-10-16T03:19:52;146.50;;;140.40;;
16693;SDS011;39538;52.196;9.892;2022-10-16T03:22:18;153.63;;;147.10;;
16693;SDS011;39538;52.196;9.892;2022-10-16T03:24:46;166.93;;;159.67;;
16693;SDS011;39538;52.196;9.892;2022-10-16T03:27:13;151.10;;;144.10;;
16693;SDS011;39538;52.196;9.892;2022-10-16T03:29:39;158.27;;;150.27;;
16693;SDS011;39538;52.196;9.892;2022-10-16T03:32:06;172.03;;;164.00;;
16693;SDS011;39538;52.196;9.892;2022-10-16T03:34:32;179.40;;;170.67;;
16693;SDS011;39538;52.196;9.892;2022-10-16T03:36:59;178.33;;;170.03;;
16693;SDS011;39538;52.196;9.892;2022-10-16T03:39:25;178.13;;;169.63;;
16693;SDS011;39538;52.196;9.892;2022-10-16T03:41:53;183.63;;;175.03;;
16693;SDS011;39538;52.196;9.892;2022-10-16T03:44:20;187.30;;;178.87;;
16693;SDS011;39538;52.196;9.892;2022-10-16T03:46:46;203.13;;;193.60;;
16693;SDS011;39538;52.196;9.892;2022-10-16T03:49:13;204.50;;;195.20;;
16693;SDS011;39538;52.196;9.892;2022-10-16T03:51:39;196.43;;;187.67;;
16693;SDS011;39538;52.196;9.892;2022-10-16T03:54:06;203.30;;;193.47;;
16693;SDS011;39538;52.196;9.892;2022-10-16T03:56:32;204.07;;;195.20;;
16693;SDS011;39538;52.196;9.892;2022-10-16T03:59:00;211.10;;;201.57;;
16693;SDS011;39538;52.196;9.892;2022-10-16T04:01:27;204.13;;;194.40;;
16693;SDS011;39538;52.196;9.892;2022-10-16T04:03:53;206.13;;;196.53;;
16693;SDS011;39538;52.196;9.892;2022-10-16T04:06:20;202.33;;;192.83;;
16693;SDS011;39538;52.196;9.892;2022-10-16T04:08:46;215.97;;;206.13;;
16693;SDS011;39538;52.196;9.892;2022-10-16T04:11:13;106.37;;;101.83;;
16693;SDS011;39538;52.196;9.892;2022-10-16T04:13:39;112.90;;;107.97;;
16693;SDS011;39538;52.196;9.892;2022-10-16T04:16:07;99.77;;;96.10;;
16693;SDS011;39538;52.196;9.892;2022-10-16T04:18:34;108.60;;;104.20;;
16693;SDS011;39538;52.196;9.892;2022-10-16T04:21:02;99.23;;;95.33;;
16693;SDS011;39538;52.196;9.892;2022-10-16T04:23:29;115.67;;;109.63;;
16693;SDS011;39538;52.196;9.892;2022-10-16T04:25:55;107.43;;;102.80;;
16693;SDS011;39538;52.196;9.892;2022-10-16T04:28:22;108.50;;;103.83;;
16693;SDS011;39538;52.196;9.892;2022-10-16T04:30:48;113.87;;;109.10;;
16693;SDS011;39538;52.196;9.892;2022-10-16T04:33:17;115.10;;;109.37;;
16693;SDS011;39538;52.196;9.892;2022-10-16T04:35:43;123.93;;;118.33;;
16693;SDS011;39538;52.196;9.892;2022-10-16T04:38:10;133.37;;;127.33;;
16693;SDS011;39538;52.196;9.892;2022-10-16T04:40:36;134.97;;;129.27;;
16693;SDS011;39538;52.196;9.892;2022-10-16T04:43:03;129.40;;;123.50;;
16693;SDS011;39538;52.196;9.892;2022-10-16T04:45:29;142.33;;;135.97;;
16693;SDS011;39538;52.196;9.892;2022-10-16T04:47:56;139.30;;;133.23;;
16693;SDS011;39538;52.196;9.892;2022-10-16T04:50:24;152.70;;;145.73;;
16693;SDS011;39538;52.196;9.892;2022-10-16T04:52:51;137.37;;;131.37;;
16693;SDS011;39538;52.196;9.892;2022-10-16T04:55:18;132.70;;;127.03;;
16693;SDS011;39538;52.196;9.892;2022-10-16T04:57:44;135.83;;;129.43;;
16693;SDS011;39538;52.196;9.892;2022-10-16T05:00:11;141.63;;;135.00;;
16693;SDS011;39538;52.196;9.892;2022-10-16T05:02:38;129.70;;;123.60;;
16693;SDS011;39538;52.196;9.892;2022-10-16T05:05:05;127.37;;;121.87;;
16693;SDS011;39538;52.196;9.892;2022-10-16T05:07:33;136.20;;;129.67;;
16693;SDS011;39538;52.196;9.892;2022-10-16T05:10:00;119.83;;;114.77;;
16693;SDS011;39538;52.196;9.892;2022-10-16T05:12:26;118.50;;;113.40;;
16693;SDS011;39538;52.196;9.892;2022-10-16T05:14:53;125.27;;;119.93;;
16693;SDS011;39538;52.196;9.892;2022-10-16T05:17:23;147.23;;;140.67;;
16693;SDS011;39538;52.196;9.892;2022-10-16T05:19:49;104.80;;;100.57;;
16693;SDS011;39538;52.196;9.892;2022-10-16T05:22:16;127.87;;;122.20;;
16693;SDS011;39538;52.196;9.892;2022-10-16T05:24:44;133.87;;;128.07;;
16693;SDS011;39538;52.196;9.892;2022-10-16T05:27:11;107.57;;;103.30;;
16693;SDS011;39538;52.196;9.892;2022-10-16T05:29:43;131.73;;;125.90;;
16693;SDS011;39538;52.196;9.892;2022-10-16T05:32:10;138.00;;;132.13;;
16693;SDS011;39538;52.196;9.892;2022-10-16T05:34:37;125.63;;;120.47;;
16693;SDS011;39538;52.196;9.892;2022-10-16T05:37:03;128.57;;;123.33;;
16693;SDS011;39538;52.196;9.892;2022-10-16T05:39:30;129.70;;;124.60;;
16693;SDS011;39538;52.196;9.892;2022-10-16T05:41:57;119.23;;;114.50;;
16693;SDS011;39538;52.196;9.892;2022-10-16T05:44:24;132.60;;;127.03;;
16693;SDS011;39538;52.196;9.892;2022-10-16T05:46:50;133.13;;;128.07;;
16693;SDS011;39538;52.196;9.892;2022-10-16T05:49:17;140.53;;;134.67;;
16693;SDS011;39538;52.196;9.892;2022-10-16T05:51:43;138.97;;;133.47;;
16693;SDS011;39538;52.196;9.892;2022-10-16T05:54:10;149.53;;;143.27;;
16693;SDS011;39538;52.196;9.892;2022-10-16T05:56:37;147.33;;;141.53;;
16693;SDS011;39538;52.196;9.892;2022-10-16T05:59:05;149.70;;;143.33;;
16693;SDS011;39538;52.196;9.892;2022-10-16T06:01:31;170.70;;;163.17;;
16693;SDS011;39538;52.196;9.892;2022-10-16T06:03:58;158.47;;;151.63;;
16693;SDS011;39538;52.196;9.892;2022-10-16T06:06:26;172.10;;;164.47;;
16693;SDS011;39538;52.196;9.892;2022-10-16T06:08:55;157.73;;;151.13;;
16693;SDS011;39538;52.196;9.892;2022-10-16T06:11:23;163.03;;;155.83;;
16693;SDS011;39538;52.196;9.892;2022-10-16T06:13:51;181.70;;;173.63;;
16693;SDS011;39538;52.196;9.892;2022-10-16T06:16:20;157.93;;;150.70;;
16693;SDS011;39538;52.196;9.892;2022-10-16T06:18:47;174.63;;;166.30;;
16693;SDS011;39538;52.196;9.892;2022-10-16T06:21:16;170.67;;;162.63;;
16693;SDS011;39538;52.196;9.892;2022-10-16T06:23:43;154.47;;;147.33;;
16693;SDS011;39538;52.196;9.892;2022-10-16T06:26:11;162.87;;;155.20;;
16693;SDS011;39538;52.196;9.892;2022-10-16T06:28:39;165.67;;;157.83;;
16693;SDS011;39538;52.196;9.892;2022-10-16T06:31:06;169.20;;;161.33;;
16693;SDS011;39538;52.196;9.892;2022-10-16T06:33:35;154.63;;;147.40;;
16693;SDS011;39538;52.196;9.892;2022-10-16T06:36:03;148.40;;;141.77;;
16693;SDS011;39538;52.196;9.892;2022-10-16T06:38:31;155.13;;;148.10;;
16693;SDS011;39538;52.196;9.892;2022-10-16T06:40:58;148.03;;;141.43;;
16693;SDS011;39538;52.196;9.892;2022-10-16T06:43:25;143.77;;;137.60;;
16693;SDS011;39538;52.196;9.892;2022-10-16T06:45:52;143.23;;;136.73;;
16693;SDS011;39538;52.196;9.892;2022-10-16T06:48:18;154.13;;;147.47;;
16693;SDS011;39538;52.196;9.892;2022-10-16T06:50:55;152.40;;;145.87;;
16693;SDS011;39538;52.196;9.892;2022-10-16T06:53:23;158.43;;;151.70;;
16693;SDS011;39538;52.196;9.892;2022-10-16T06:55:50;139.83;;;133.97;;
16693;SDS011;39538;52.196;9.892;2022-10-16T06:58:16;152.97;;;146.57;;
16693;SDS011;39538;52.196;9.892;2022-10-16T07:00:43;187.13;;;179.33;;
16693;SDS011;39538;52.196;9.892;2022-10-16T07:03:10;198.87;;;190.17;;
16693;SDS011;39538;52.196;9.892;2022-10-16T07:05:37;207.67;;;198.73;;
16693;SDS011;39538;52.196;9.892;2022-10-16T07:08:05;204.80;;;196.30;;
16693;SDS011;39538;52.196;9.892;2022-10-16T07:10:32;237.47;;;226.93;;
16693;SDS011;39538;52.196;9.892;2022-10-16T07:12:59;291.80;;;278.97;;
16693;SDS011;39538;52.196;9.892;2022-10-16T07:15:25;309.10;;;295.23;;
16693;SDS011;39538;52.196;9.892;2022-10-16T07:17:52;320.33;;;305.43;;
16693;SDS011;39538;52.196;9.892;2022-10-16T07:20:19;303.47;;;289.30;;
16693;SDS011;39538;52.196;9.892;2022-10-16T07:22:46;308.03;;;293.40;;
16693;SDS011;39538;52.196;9.892;2022-10-16T07:25:14;289.63;;;276.17;;
16693;SDS011;39538;52.196;9.892;2022-10-16T07:27:41;247.30;;;235.47;;
16693;SDS011;39538;52.196;9.892;2022-10-16T07:30:07;228.33;;;217.63;;
16693;SDS011;39538;52.196;9.892;2022-10-16T07:32:35;207.10;;;197.70;;
16693;SDS011;39538;52.196;9.892;2022-10-16T07:35:01;203.97;;;194.97;;
16693;SDS011;39538;52.196;9.892;2022-10-16T07:37:28;196.07;;;187.67;;
16693;SDS011;39538;52.196;9.892;2022-10-16T07:39:54;199.70;;;191.33;;
16693;SDS011;39538;52.196;9.892;2022-10-16T07:42:22;191.90;;;183.93;;
16693;SDS011;39538;52.196;9.892;2022-10-16T07:44:49;193.20;;;185.30;;
16693;SDS011;39538;52.196;9.892;2022-10-16T07:47:15;212.73;;;204.30;;
16693;SDS011;39538;52.196;9.892;2022-10-16T07:49:42;176.00;;;168.57;;
16693;SDS011;39538;52.196;9.892;2022-10-16T07:52:08;183.77;;;175.97;;
16693;SDS011;39538;52.196;9.892;2022-10-16T07:54:35;170.87;;;164.00;;
16693;SDS011;39538;52.196;9.892;2022-10-16T07:57:01;191.00;;;183.47;;
16693;SDS011;39538;52.196;9.892;2022-10-16T07:59:29;176.40;;;169.70;;
16693;SDS011;39538;52.196;9.892;2022-10-16T08:01:56;213.50;;;204.93;;
16693;SDS011;39538;52.196;9.892;2022-10-16T08:04:22;201.07;;;193.50;;
16693;SDS011;39538;52.196;9.892;2022-10-16T08:06:49;180.37;;;173.57;;
16693;SDS011;39538;52.196;9.892;2022-10-16T08:09:15;176.37;;;169.77;;
16693;SDS011;39538;52.196;9.892;2022-10-16T08:11:42;189.03;;;181.57;;
16693;SDS011;39538;52.196;9.892;2022-10-16T08:14:08;177.87;;;170.83;;
16693;SDS011;39538;52.196;9.892;2022-10-16T08:16:36;180.90;;;173.50;;
16693;SDS011;39538;52.196;9.892;2022-10-16T08:19:02;174.20;;;167.13;;
16693;SDS011;39538;52.196;9.892;2022-10-16T08:21:29;182.47;;;175.10;;
16693;SDS011;39538;52.196;9.892;2022-10-16T08:23:55;181.87;;;174.80;;
16693;SDS011;39538;52.196;9.892;2022-10-16T08:26:22;198.37;;;190.13;;
16693;SDS011;39538;52.196;9.892;2022-10-16T08:28:49;183.17;;;175.67;;
16693;SDS011;39538;52.196;9.892;2022-10-16T08:31:15;187.47;;;179.87;;
16693;SDS011;39538;52.196;9.892;2022-10-16T08:33:44;193.47;;;185.57;;
16693;SDS011;39538;52.196;9.892;2022-10-16T08:36:12;200.57;;;192.50;;
16693;SDS011;39538;52.196;9.892;2022-10-16T08:38:39;182.40;;;175.03;;
16693;SDS011;39538;52.196;9.892;2022-10-16T08:41:14;173.80;;;166.20;;
16693;SDS011;39538;52.196;9.892;2022-10-16T08:46:56;116.53;;;112.35;;
16693;SDS011;39538;52.196;9.892;2022-10-16T08:49:35;114.50;;;110.55;;
16693;SDS011;39538;52.196;9.892;2022-10-16T08:52:03;129.05;;;123.43;;
16693;SDS011;39538;52.196;9.892;2022-10-16T08:54:30;135.63;;;130.18;;
16693;SDS011;39538;52.196;9.892;2022-10-16T08:57:07;144.93;;;138.82;;
16693;SDS011;39538;52.196;9.892;2022-10-16T08:59:35;134.80;;;129.13;;
16693;SDS011;39538;52.196;9.892;2022-10-16T09:02:02;134.68;;;129.20;;
16693;SDS011;39538;52.196;9.892;2022-10-16T09:04:51;129.55;;;124.25;;
16693;SDS011;39538;52.196;9.892;2022-10-16T09:07:26;98.90;;;95.30;;
16693;SDS011;39538;52.196;9.892;2022-10-16T09:10:10;104.67;;;100.70;;
16693;SDS011;39538;52.196;9.892;2022-10-16T09:12:46;105.97;;;102.03;;
16693;SDS011;39538;52.196;9.892;2022-10-16T09:15:22;112.88;;;104.78;;
16693;SDS011;39538;52.196;9.892;2022-10-16T09:17:56;125.50;;;120.40;;
16693;SDS011;39538;52.196;9.892;2022-10-16T09:20:32;143.07;;;137.18;;
16693;SDS011;39538;52.196;9.892;2022-10-16T09:23:12;149.82;;;143.70;;
16693;SDS011;39538;52.196;9.892;2022-10-16T09:25:42;153.25;;;146.48;;
16693;SDS011;39538;52.196;9.892;2022-10-16T09:28:10;148.25;;;142.23;;
16693;SDS011;39538;52.196;9.892;2022-10-16T09:30:37;163.95;;;157.13;;
16693;SDS011;39538;52.196;9.892;2022-10-16T09:33:05;175.15;;;167.45;;
16693;SDS011;39538;52.196;9.892;2022-10-16T09:35:36;216.93;;;207.50;;
16693;SDS011;39538;52.196;9.892;2022-10-16T09:38:04;231.93;;;221.63;;
16693;SDS011;39538;52.196;9.892;2022-10-16T09:40:33;232.02;;;222.10;;
16693;SDS011;39538;52.196;9.892;2022-10-16T09:43:02;214.25;;;205.05;;
16693;SDS011;39538;52.196;9.892;2022-10-16T09:45:38;207.82;;;198.93;;
16693;SDS011;39538;52.196;9.892;2022-10-16T09:48:09;212.82;;;203.73;;
16693;SDS011;39538;52.196;9.892;2022-10-16T09:50:38;210.63;;;201.52;;
16693;SDS011;39538;52.196;9.892;2022-10-16T09:53:06;210.20;;;201.45;;
16693;SDS011;39538;52.196;9.892;2022-10-16T09:55:47;200.85;;;192.55;;
16693;SDS011;39538;52.196;9.892;2022-10-16T09:58:15;194.00;;;186.00;;
16693;SDS011;39538;52.196;9.892;2022-10-16T10:00:42;182.75;;;175.35;;
16693;SDS011;39538;52.196;9.892;2022-10-16T10:03:16;170.18;;;163.20;;
16693;SDS011;39538;52.196;9.892;2022-10-16T10:06:00;169.82;;;162.57;;
16693;SDS011;39538;52.196;9.892;2022-10-16T10:08:31;165.50;;;159.02;;
16693;SDS011;39538;52.196;9.892;2022-10-16T10:10:57;164.73;;;158.07;;
16693;SDS011;39538;52.196;9.892;2022-10-16T10:13:24;148.55;;;142.77;;
16693;SDS011;39538;52.196;9.892;2022-10-16T10:15:52;164.90;;;158.40;;
16693;SDS011;39538;52.196;9.892;2022-10-16T10:18:20;154.48;;;148.48;;
16693;SDS011;39538;52.196;9.892;2022-10-16T10:20:56;148.20;;;142.20;;
16693;SDS011;39538;52.196;9.892;2022-10-16T10:23:25;150.30;;;144.25;;
16693;SDS011;39538;52.196;9.892;2022-10-16T10:25:55;144.13;;;138.52;;
16693;SDS011;39538;52.196;9.892;2022-10-16T10:31:23;139.13;;;133.88;;
16693;SDS011;39538;52.196;9.892;2022-10-16T10:33:57;144.32;;;138.90;;
16693;SDS011;39538;52.196;9.892;2022-10-16T10:36:32;137.45;;;132.43;;
16693;SDS011;39538;52.196;9.892;2022-10-16T10:39:05;137.27;;;132.00;;
16693;SDS011;39538;52.196;9.892;2022-10-16T10:47:40;121.88;;;117.53;;
16693;SDS011;39538;52.196;9.892;2022-10-16T10:50:14;130.77;;;125.90;;
16693;SDS011;39538;52.196;9.892;2022-10-16T10:52:52;132.55;;;127.25;;
16693;SDS011;39538;52.196;9.892;2022-10-16T10:55:27;125.18;;;120.82;;
16693;SDS011;39538;52.196;9.892;2022-10-16T10:58:10;129.60;;;124.78;;
16693;SDS011;39538;52.196;9.892;2022-10-16T11:01:01;113.90;;;110.15;;
16693;SDS011;39538;52.196;9.892;2022-10-16T11:03:41;116.55;;;112.18;;
16693;SDS011;39538;52.196;9.892;2022-10-16T11:06:19;115.80;;;111.57;;
16693;SDS011;39538;52.196;9.892;2022-10-16T11:08:50;113.90;;;109.93;;
16693;SDS011;39538;52.196;9.892;2022-10-16T11:11:23;113.38;;;109.32;;
16693;SDS011;39538;52.196;9.892;2022-10-16T11:13:56;115.28;;;111.28;;
16693;SDS011;39538;52.196;9.892;2022-10-16T11:16:27;117.35;;;113.32;;
16693;SDS011;39538;52.196;9.892;2022-10-16T11:18:56;110.57;;;106.95;;
16693;SDS011;39538;52.196;9.892;2022-10-16T11:21:29;111.50;;;107.70;;
16693;SDS011;39538;52.196;9.892;2022-10-16T11:24:04;106.88;;;103.25;;
16693;SDS011;39538;52.196;9.892;2022-10-16T11:26:39;102.82;;;99.60;;
16693;SDS011;39538;52.196;9.892;2022-10-16T11:29:10;102.05;;;98.47;;
16693;SDS011;39538;52.196;9.892;2022-10-16T11:31:43;101.22;;;98.15;;
16693;SDS011;39538;52.196;9.892;2022-10-16T11:34:15;101.93;;;98.72;;
16693;SDS011;39538;52.196;9.892;2022-10-16T11:36:49;102.15;;;99.07;;
16693;SDS011;39538;52.196;9.892;2022-10-16T11:39:19;109.97;;;106.28;;
16693;SDS011;39538;52.196;9.892;2022-10-16T11:41:50;95.15;;;92.32;;
16693;SDS011;39538;52.196;9.892;2022-10-16T11:44:34;101.35;;;97.88;;
16693;SDS011;39538;52.196;9.892;2022-10-16T11:47:11;95.22;;;92.38;;
16693;SDS011;39538;52.196;9.892;2022-10-16T11:49:45;101.45;;;98.45;;
16693;SDS011;39538;52.196;9.892;2022-10-16T11:52:16;98.15;;;95.10;;
16693;SDS011;39538;52.196;9.892;2022-10-16T11:54:49;103.40;;;100.25;;
16693;SDS011;39538;52.196;9.892;2022-10-16T11:57:22;107.30;;;103.65;;
16693;SDS011;39538;52.196;9.892;2022-10-16T11:59:52;104.72;;;101.22;;
16693;SDS011;39538;52.196;9.892;2022-10-16T12:02:30;125.35;;;121.05;;
16693;SDS011;39538;52.196;9.892;2022-10-16T12:05:06;125.78;;;121.32;;
16693;SDS011;39538;52.196;9.892;2022-10-16T12:07:41;118.95;;;115.07;;
16693;SDS011;39538;52.196;9.892;2022-10-16T12:10:21;116.65;;;112.45;;
16693;SDS011;39538;52.196;9.892;2022-10-16T12:12:50;111.90;;;108.00;;
16693;SDS011;39538;52.196;9.892;2022-10-16T12:15:21;119.10;;;115.07;;
16693;SDS011;39538;52.196;9.892;2022-10-16T12:17:50;110.90;;;107.28;;
16693;SDS011;39538;52.196;9.892;2022-10-16T12:20:19;113.15;;;109.45;;
16693;SDS011;39538;52.196;9.892;2022-10-16T12:22:49;120.78;;;116.65;;
16693;SDS011;39538;52.196;9.892;2022-10-16T12:25:21;111.15;;;107.45;;
16693;SDS011;39538;52.196;9.892;2022-10-16T12:28:01;109.13;;;105.63;;
16693;SDS011;39538;52.196;9.892;2022-10-16T12:30:30;111.35;;;107.70;;
16693;SDS011;39538;52.196;9.892;2022-10-16T12:32:59;119.72;;;115.60;;
16693;SDS011;39538;52.196;9.892;2022-10-16T12:35:29;124.20;;;119.70;;
16693;SDS011;39538;52.196;9.892;2022-10-16T12:38:05;124.93;;;120.57;;
16693;SDS011;39538;52.196;9.892;2022-10-16T12:40:34;120.43;;;116.32;;
16693;SDS011;39538;52.196;9.892;2022-10-16T12:43:23;118.00;;;114.15;;
16693;SDS011;39538;52.196;9.892;2022-10-16T12:46:00;112.55;;;108.88;;
16693;SDS011;39538;52.196;9.892;2022-10-16T12:48:28;114.53;;;110.68;;
16693;SDS011;39538;52.196;9.892;2022-10-16T12:50:55;113.35;;;109.60;;
16693;SDS011;39538;52.196;9.892;2022-10-16T12:53:23;109.18;;;105.60;;
16693;SDS011;39538;52.196;9.892;2022-10-16T12:55:54;114.80;;;110.85;;
16693;SDS011;39538;52.196;9.892;2022-10-16T12:58:51;115.88;;;112.05;;
16693;SDS011;39538;52.196;9.892;2022-10-16T13:01:34;114.53;;;110.88;;
16693;SDS011;39538;52.196;9.892;2022-10-16T13:04:22;120.00;;;116.05;;
16693;SDS011;39538;52.196;9.892;2022-10-16T13:07:03;111.70;;;107.95;;
16693;SDS011;39538;52.196;9.892;2022-10-16T13:09:46;107.35;;;103.70;;
16693;SDS011;39538;52.196;9.892;2022-10-16T13:12:27;110.25;;;106.43;;
16693;SDS011;39538;52.196;9.892;2022-10-16T13:15:16;105.30;;;101.93;;
16693;SDS011;39538;52.196;9.892;2022-10-16T13:17:52;92.78;;;89.35;;
16693;SDS011;39538;52.196;9.892;2022-10-16T13:20:30;85.85;;;83.10;;
16693;SDS011;39538;52.196;9.892;2022-10-16T13:23:03;78.07;;;75.93;;
16693;SDS011;39538;52.196;9.892;2022-10-16T13:25:43;73.15;;;71.15;;
16693;SDS011;39538;52.196;9.892;2022-10-16T13:28:21;75.68;;;73.30;;
16693;SDS011;39538;52.196;9.892;2022-10-16T13:30:55;68.38;;;66.35;;
16693;SDS011;39538;52.196;9.892;2022-10-16T13:33:25;72.13;;;70.13;;
16693;SDS011;39538;52.196;9.892;2022-10-16T13:35:58;77.95;;;75.55;;
16693;SDS011;39538;52.196;9.892;2022-10-16T13:38:25;81.40;;;78.70;;
16693;SDS011;39538;52.196;9.892;2022-10-16T13:40:54;85.95;;;83.05;;
16693;SDS011;39538;52.196;9.892;2022-10-16T13:43:22;86.53;;;83.35;;
16693;SDS011;39538;52.196;9.892;2022-10-16T13:45:52;87.75;;;84.85;;
16693;SDS011;39538;52.196;9.892;2022-10-16T13:48:21;86.65;;;83.63;;
16693;SDS011;39538;52.196;9.892;2022-10-16T13:50:57;91.75;;;88.45;;
16693;SDS011;39538;52.196;9.892;2022-10-16T13:53:25;84.70;;;81.78;;
16693;SDS011;39538;52.196;9.892;2022-10-16T13:55:51;89.70;;;86.93;;
16693;SDS011;39538;52.196;9.892;2022-10-16T13:58:18;78.67;;;76.13;;
16693;SDS011;39538;52.196;9.892;2022-10-16T14:00:52;79.00;;;76.60;;
16693;SDS011;39538;52.196;9.892;2022-10-16T14:03:22;76.97;;;74.47;;
16693;SDS011;39538;52.196;9.892;2022-10-16T14:05:51;77.83;;;75.50;;
16693;SDS011;39538;52.196;9.892;2022-10-16T14:08:19;83.83;;;81.27;;
16693;SDS011;39538;52.196;9.892;2022-10-16T14:10:47;75.87;;;73.53;;
16693;SDS011;39538;52.196;9.892;2022-10-16T14:13:16;83.30;;;80.83;;
16693;SDS011;39538;52.196;9.892;2022-10-16T14:15:45;93.03;;;89.97;;
16693;SDS011;39538;52.196;9.892;2022-10-16T14:18:17;93.23;;;90.23;;
16693;SDS011;39538;52.196;9.892;2022-10-16T14:20:46;86.43;;;83.70;;
16693;SDS011;39538;52.196;9.892;2022-10-16T14:23:21;91.23;;;88.37;;
16693;SDS011;39538;52.196;9.892;2022-10-16T14:25:51;85.83;;;83.07;;
16693;SDS011;39538;52.196;9.892;2022-10-16T14:28:18;90.10;;;87.30;;